AUA814 LGIR-LOWW
Flight info
| Callsign | AUA814 |
|---|---|
| Flight time | 2h 28m |
| Altitude | 36000 |
| Route | EPALO M749 DIRMI UL613 XANIS DCT DIMIS DCT GACMO DCT OBUTI OBUTI2W |
| Aircraft | A320/M-SDE3FGHIRWY/LB1 |
Departure
| Time | 2026-05-05 12:39 |
|---|---|
| Airport | Heraklion International Nikos Kazantzakis Airport (LGIR) |
Arrival
| Time | 2026-05-05 15:08 |
|---|---|
| Airport | Vienna International Airport (LOWW) |
| Time | Latitude | Longitude | Altitude | Speed | Heading |
|---|---|---|---|---|---|
| 2026-05-05 12:03 | 35.33805 | 25.17424 | 85 ft | 0 kts | 274° |
| 2026-05-05 12:04 | 35.33805 | 25.17423 | 85 ft | 0 kts | 274° |
| 2026-05-05 12:20 | 35.33805 | 25.17424 | 85 ft | 0 kts | 274° |
| 2026-05-05 12:31 | 35.33805 | 25.17423 | 85 ft | 0 kts | 274° |
| 2026-05-05 12:31 | 35.33805 | 25.17422 | 85 ft | 0 kts | 274° |
| 2026-05-05 12:32 | 35.33810 | 25.17386 | 70 ft | 7 kts | 290° |
| 2026-05-05 12:32 | 35.33855 | 25.17375 | 84 ft | 8 kts | 4° |
| 2026-05-05 12:33 | 35.33910 | 25.17389 | 88 ft | 8 kts | 37° |
| 2026-05-05 12:33 | 35.33917 | 25.17442 | 86 ft | 7 kts | 95° |
| 2026-05-05 12:33 | 35.33910 | 25.17536 | 92 ft | 14 kts | 94° |
| 2026-05-05 12:33 | 35.33901 | 25.17661 | 92 ft | 13 kts | 95° |
| 2026-05-05 12:34 | 35.33892 | 25.17788 | 95 ft | 17 kts | 95° |
| 2026-05-05 12:34 | 35.33882 | 25.17922 | 98 ft | 14 kts | 94° |
| 2026-05-05 12:34 | 35.33875 | 25.18032 | 100 ft | 14 kts | 95° |
| 2026-05-05 12:34 | 35.33866 | 25.18171 | 103 ft | 15 kts | 94° |
| 2026-05-05 12:35 | 35.33857 | 25.18300 | 105 ft | 18 kts | 95° |
| 2026-05-05 12:35 | 35.33846 | 25.18460 | 107 ft | 18 kts | 94° |
| 2026-05-05 12:35 | 35.33836 | 25.18596 | 110 ft | 15 kts | 95° |
| 2026-05-05 12:35 | 35.33826 | 25.18745 | 114 ft | 17 kts | 95° |
| 2026-05-05 12:36 | 35.33819 | 25.18847 | 116 ft | 9 kts | 94° |
| 2026-05-05 12:36 | 35.33818 | 25.18864 | 116 ft | 0 kts | 94° |
| 2026-05-05 12:37 | 35.33817 | 25.18887 | 117 ft | 5 kts | 94° |
| 2026-05-05 12:38 | 35.33819 | 25.18933 | 118 ft | 6 kts | 73° |
| 2026-05-05 12:38 | 35.33851 | 25.18990 | 118 ft | 9 kts | 52° |
| 2026-05-05 12:38 | 35.33894 | 25.19029 | 116 ft | 7 kts | 351° |
| 2026-05-05 12:38 | 35.33910 | 25.18962 | 113 ft | 13 kts | 275° |
| 2026-05-05 12:39 | 35.33936 | 25.18586 | 107 ft | 81 kts | 274° |
| 2026-05-05 12:39 | 35.34002 | 25.17629 | 93 ft | 141 kts | 275° |
| 2026-05-05 12:39 | 35.34087 | 25.16301 | 422 ft | 158 kts | 283° |
| 2026-05-05 12:39 | 35.34288 | 25.15002 | 1131 ft | 155 kts | 305° |
| 2026-05-05 12:40 | 35.35143 | 25.14269 | 1829 ft | 156 kts | 341° |
| 2026-05-05 12:40 | 35.36244 | 25.13923 | 2275 ft | 173 kts | 341° |
| 2026-05-05 12:40 | 35.37463 | 25.13505 | 2568 ft | 195 kts | 341° |
| 2026-05-05 12:40 | 35.38858 | 25.13013 | 2908 ft | 217 kts | 341° |
| 2026-05-05 12:41 | 35.40371 | 25.12472 | 3311 ft | 240 kts | 342° |
| 2026-05-05 12:41 | 35.42000 | 25.11886 | 4108 ft | 246 kts | 343° |
| 2026-05-05 12:41 | 35.43659 | 25.11287 | 4985 ft | 250 kts | 345° |
| 2026-05-05 12:41 | 35.45349 | 25.10673 | 5808 ft | 256 kts | 346° |
| 2026-05-05 12:42 | 35.47068 | 25.10046 | 6699 ft | 259 kts | 346° |
| 2026-05-05 12:42 | 35.48798 | 25.09413 | 7549 ft | 261 kts | 345° |
| 2026-05-05 12:42 | 35.50550 | 25.08771 | 8388 ft | 264 kts | 344° |
| 2026-05-05 12:42 | 35.52323 | 25.08121 | 9213 ft | 268 kts | 343° |
| 2026-05-05 12:43 | 35.54122 | 25.07456 | 10029 ft | 272 kts | 343° |
| 2026-05-05 12:43 | 35.55966 | 25.06775 | 10534 ft | 286 kts | 343° |
| 2026-05-05 12:43 | 35.57952 | 25.06043 | 10752 ft | 310 kts | 343° |
| 2026-05-05 12:43 | 35.60055 | 25.05266 | 10995 ft | 329 kts | 343° |
| 2026-05-05 12:44 | 35.62273 | 25.04448 | 11600 ft | 336 kts | 343° |
| 2026-05-05 12:44 | 35.64523 | 25.03621 | 12314 ft | 339 kts | 343° |
| 2026-05-05 12:44 | 35.66795 | 25.02783 | 13034 ft | 342 kts | 343° |
| 2026-05-05 12:44 | 35.69087 | 25.01935 | 13742 ft | 346 kts | 343° |
| 2026-05-05 12:45 | 35.71398 | 25.01078 | 14385 ft | 349 kts | 342° |
| 2026-05-05 12:45 | 35.73708 | 25.00128 | 14998 ft | 351 kts | 340° |
| 2026-05-05 12:45 | 35.76009 | 24.99074 | 15615 ft | 354 kts | 338° |
| 2026-05-05 12:45 | 35.78313 | 24.97962 | 16225 ft | 357 kts | 337° |
| 2026-05-05 12:46 | 35.80631 | 24.96825 | 16822 ft | 360 kts | 337° |
| 2026-05-05 12:46 | 35.82973 | 24.95681 | 17420 ft | 364 kts | 337° |
| 2026-05-05 12:46 | 35.85341 | 24.94541 | 18019 ft | 367 kts | 337° |
| 2026-05-05 12:46 | 35.87734 | 24.93404 | 18587 ft | 370 kts | 337° |
| 2026-05-05 12:47 | 35.90146 | 24.92266 | 19129 ft | 372 kts | 337° |
| 2026-05-05 12:47 | 35.92573 | 24.91123 | 19693 ft | 374 kts | 337° |
| 2026-05-05 12:47 | 35.95011 | 24.89976 | 20258 ft | 376 kts | 337° |
| 2026-05-05 12:47 | 35.97457 | 24.88825 | 20817 ft | 377 kts | 337° |
| 2026-05-05 12:48 | 35.99914 | 24.87667 | 21355 ft | 379 kts | 337° |
| 2026-05-05 12:48 | 36.02380 | 24.86502 | 21877 ft | 380 kts | 338° |
| 2026-05-05 12:48 | 36.04826 | 24.85251 | 22385 ft | 381 kts | 332° |
| 2026-05-05 12:48 | 36.07075 | 24.83517 | 22878 ft | 382 kts | 322° |
| 2026-05-05 12:49 | 36.09150 | 24.81453 | 23361 ft | 384 kts | 321° |
| 2026-05-05 12:49 | 36.11235 | 24.79380 | 23807 ft | 385 kts | 321° |
| 2026-05-05 12:49 | 36.13332 | 24.77306 | 24189 ft | 387 kts | 322° |
| 2026-05-05 12:49 | 36.15438 | 24.75224 | 24565 ft | 388 kts | 322° |
| 2026-05-05 12:50 | 36.17551 | 24.73130 | 24935 ft | 390 kts | 321° |
| 2026-05-05 12:50 | 36.19667 | 24.71028 | 25295 ft | 391 kts | 321° |
| 2026-05-05 12:50 | 36.21764 | 24.68944 | 25655 ft | 392 kts | 321° |
| 2026-05-05 12:50 | 36.23896 | 24.66824 | 26009 ft | 394 kts | 321° |
| 2026-05-05 12:51 | 36.26035 | 24.64695 | 26356 ft | 395 kts | 321° |
| 2026-05-05 12:51 | 36.28181 | 24.62557 | 26687 ft | 397 kts | 321° |
| 2026-05-05 12:51 | 36.30339 | 24.60409 | 27014 ft | 398 kts | 321° |
| 2026-05-05 12:51 | 36.32501 | 24.58254 | 27330 ft | 400 kts | 321° |
| 2026-05-05 12:52 | 36.34673 | 24.56085 | 27649 ft | 401 kts | 321° |
| 2026-05-05 12:52 | 36.36849 | 24.53911 | 27956 ft | 403 kts | 321° |
| 2026-05-05 12:52 | 36.39034 | 24.51726 | 28253 ft | 404 kts | 321° |
| 2026-05-05 12:52 | 36.41227 | 24.49535 | 28538 ft | 405 kts | 321° |
| 2026-05-05 12:53 | 36.43424 | 24.47334 | 28811 ft | 407 kts | 321° |
| 2026-05-05 12:53 | 36.45625 | 24.45122 | 29076 ft | 408 kts | 321° |
| 2026-05-05 12:53 | 36.47833 | 24.42903 | 29331 ft | 409 kts | 321° |
| 2026-05-05 12:53 | 36.50048 | 24.40680 | 29622 ft | 409 kts | 321° |
| 2026-05-05 12:54 | 36.54452 | 24.36255 | 30367 ft | 404 kts | 321° |
| 2026-05-05 12:54 | 36.56634 | 24.34062 | 30692 ft | 402 kts | 321° |
| 2026-05-05 12:54 | 36.58807 | 24.31881 | 30996 ft | 401 kts | 321° |
| 2026-05-05 12:55 | 36.60975 | 24.29700 | 31296 ft | 400 kts | 321° |
| 2026-05-05 12:55 | 36.63134 | 24.27523 | 31589 ft | 399 kts | 321° |
| 2026-05-05 12:55 | 36.65286 | 24.25349 | 31882 ft | 398 kts | 321° |
| 2026-05-05 12:55 | 36.67433 | 24.23180 | 32179 ft | 397 kts | 321° |
| 2026-05-05 12:56 | 36.69578 | 24.21016 | 32478 ft | 396 kts | 321° |
| 2026-05-05 12:56 | 36.71714 | 24.18858 | 32771 ft | 395 kts | 321° |
| 2026-05-05 12:56 | 36.73126 | 24.17429 | 32970 ft | 394 kts | 321° |
| 2026-05-05 12:56 | 36.75252 | 24.15272 | 33264 ft | 394 kts | 321° |
| 2026-05-05 12:57 | 36.77372 | 24.13118 | 33554 ft | 393 kts | 321° |
| 2026-05-05 12:57 | 36.79490 | 24.10969 | 33849 ft | 392 kts | 321° |
| 2026-05-05 12:57 | 36.81600 | 24.08827 | 34137 ft | 391 kts | 321° |
| 2026-05-05 12:57 | 36.83710 | 24.06687 | 34375 ft | 391 kts | 321° |
| 2026-05-05 12:58 | 36.85819 | 24.04550 | 34605 ft | 391 kts | 321° |
| 2026-05-05 12:58 | 36.87926 | 24.02409 | 34827 ft | 390 kts | 320° |
| 2026-05-05 12:58 | 36.90031 | 24.00265 | 35043 ft | 390 kts | 320° |
| 2026-05-05 12:58 | 36.92135 | 23.98122 | 35254 ft | 390 kts | 320° |
| 2026-05-05 12:59 | 36.94239 | 23.95980 | 35461 ft | 390 kts | 320° |
| 2026-05-05 12:59 | 36.96341 | 23.93838 | 35661 ft | 390 kts | 320° |
| 2026-05-05 12:59 | 36.98439 | 23.91695 | 35860 ft | 390 kts | 320° |
| 2026-05-05 13:00 | 37.02643 | 23.87399 | 36089 ft | 391 kts | 320° |
| 2026-05-05 13:00 | 37.04751 | 23.85243 | 36095 ft | 392 kts | 320° |
| 2026-05-05 13:01 | 37.13192 | 23.76601 | 36089 ft | 392 kts | 320° |
| 2026-05-05 13:01 | 37.17391 | 23.72299 | 36090 ft | 393 kts | 320° |
| 2026-05-05 13:02 | 37.21629 | 23.67949 | 36089 ft | 394 kts | 320° |
| 2026-05-05 13:02 | 37.25862 | 23.63593 | 36086 ft | 394 kts | 320° |
| 2026-05-05 13:03 | 37.30093 | 23.59230 | 36083 ft | 394 kts | 320° |
| 2026-05-05 13:03 | 37.34325 | 23.54864 | 36084 ft | 394 kts | 320° |
| 2026-05-05 13:04 | 37.38552 | 23.50498 | 36085 ft | 393 kts | 320° |
| 2026-05-05 13:04 | 37.42781 | 23.46132 | 36100 ft | 393 kts | 321° |
| 2026-05-05 13:05 | 37.46994 | 23.41765 | 36076 ft | 392 kts | 320° |
| 2026-05-05 13:05 | 37.51204 | 23.37386 | 36076 ft | 393 kts | 320° |
| 2026-05-05 13:06 | 37.55417 | 23.33003 | 36073 ft | 393 kts | 320° |
| 2026-05-05 13:06 | 37.59629 | 23.28612 | 36071 ft | 393 kts | 320° |
| 2026-05-05 13:07 | 37.63842 | 23.24219 | 36069 ft | 393 kts | 320° |
| 2026-05-05 13:07 | 37.68055 | 23.19823 | 36085 ft | 393 kts | 320° |
| 2026-05-05 13:08 | 37.72267 | 23.15420 | 36081 ft | 393 kts | 320° |
| 2026-05-05 13:08 | 37.76477 | 23.11006 | 36077 ft | 393 kts | 320° |
| 2026-05-05 13:09 | 37.80679 | 23.06591 | 36058 ft | 393 kts | 320° |
| 2026-05-05 13:09 | 37.84886 | 23.02169 | 36065 ft | 393 kts | 320° |
| 2026-05-05 13:10 | 37.89060 | 22.97775 | 36067 ft | 393 kts | 320° |
| 2026-05-05 13:10 | 37.93257 | 22.93342 | 36071 ft | 393 kts | 319° |
| 2026-05-05 13:11 | 37.97345 | 22.88743 | 36085 ft | 393 kts | 317° |
| 2026-05-05 13:11 | 38.01337 | 22.84009 | 36083 ft | 393 kts | 317° |
| 2026-05-05 13:12 | 38.05340 | 22.79280 | 36083 ft | 393 kts | 317° |
| 2026-05-05 13:12 | 38.09362 | 22.74581 | 36070 ft | 393 kts | 317° |
| 2026-05-05 13:13 | 38.13395 | 22.69894 | 36076 ft | 393 kts | 317° |
| 2026-05-05 13:13 | 38.17442 | 22.65226 | 36078 ft | 393 kts | 317° |
| 2026-05-05 13:14 | 38.21482 | 22.60541 | 36075 ft | 393 kts | 317° |
| 2026-05-05 13:14 | 38.25510 | 22.55845 | 36097 ft | 393 kts | 317° |
| 2026-05-05 13:15 | 38.29526 | 22.51145 | 36097 ft | 392 kts | 317° |
| 2026-05-05 13:15 | 38.33537 | 22.46450 | 36096 ft | 392 kts | 317° |
| 2026-05-05 13:16 | 38.37540 | 22.41746 | 36079 ft | 391 kts | 317° |
| 2026-05-05 13:16 | 38.41544 | 22.37040 | 36077 ft | 391 kts | 317° |
| 2026-05-05 13:17 | 38.45548 | 22.32334 | 36081 ft | 392 kts | 317° |
| 2026-05-05 13:17 | 38.49558 | 22.27614 | 36077 ft | 392 kts | 317° |
| 2026-05-05 13:18 | 38.53564 | 22.22887 | 36083 ft | 392 kts | 317° |
| 2026-05-05 13:18 | 38.57576 | 22.18161 | 36087 ft | 392 kts | 318° |
| 2026-05-05 13:19 | 38.61751 | 22.13684 | 36087 ft | 392 kts | 320° |
| 2026-05-05 13:19 | 38.66047 | 22.09378 | 36071 ft | 392 kts | 320° |
| 2026-05-05 13:20 | 38.70326 | 22.05042 | 36076 ft | 393 kts | 320° |
| 2026-05-05 13:20 | 38.74580 | 22.00652 | 36078 ft | 392 kts | 320° |
| 2026-05-05 13:21 | 38.78816 | 21.96243 | 36095 ft | 393 kts | 319° |
| 2026-05-05 13:21 | 38.83050 | 21.91824 | 36100 ft | 392 kts | 319° |
| 2026-05-05 13:22 | 38.87286 | 21.87412 | 36095 ft | 392 kts | 319° |
| 2026-05-05 13:22 | 38.91493 | 21.83024 | 36089 ft | 392 kts | 320° |
| 2026-05-05 13:23 | 38.95727 | 21.78607 | 36078 ft | 392 kts | 319° |
| 2026-05-05 13:23 | 38.99963 | 21.74196 | 36085 ft | 392 kts | 319° |
| 2026-05-05 13:24 | 39.04196 | 21.69776 | 36085 ft | 392 kts | 319° |
| 2026-05-05 13:24 | 39.08418 | 21.65344 | 36097 ft | 392 kts | 319° |
| 2026-05-05 13:25 | 39.12632 | 21.60908 | 36090 ft | 391 kts | 319° |
| 2026-05-05 13:25 | 39.16843 | 21.56471 | 36089 ft | 391 kts | 319° |
| 2026-05-05 13:26 | 39.21051 | 21.52030 | 36099 ft | 391 kts | 319° |
| 2026-05-05 13:26 | 39.25247 | 21.47577 | 36091 ft | 391 kts | 319° |
| 2026-05-05 13:27 | 39.29446 | 21.43123 | 36091 ft | 391 kts | 319° |
| 2026-05-05 13:27 | 39.33614 | 21.38698 | 36107 ft | 390 kts | 319° |
| 2026-05-05 13:28 | 39.37806 | 21.34239 | 36107 ft | 390 kts | 319° |
| 2026-05-05 13:28 | 39.42002 | 21.29789 | 36109 ft | 390 kts | 319° |
| 2026-05-05 13:29 | 39.46192 | 21.25331 | 36110 ft | 390 kts | 319° |
| 2026-05-05 13:29 | 39.50374 | 21.20871 | 36107 ft | 390 kts | 319° |
| 2026-05-05 13:30 | 39.54549 | 21.16399 | 36111 ft | 389 kts | 319° |
| 2026-05-05 13:30 | 39.58722 | 21.11927 | 36103 ft | 389 kts | 319° |
| 2026-05-05 13:31 | 39.62897 | 21.07458 | 36112 ft | 389 kts | 319° |
| 2026-05-05 13:31 | 39.67070 | 21.02987 | 36110 ft | 389 kts | 319° |
| 2026-05-05 13:32 | 39.71237 | 20.98504 | 36109 ft | 389 kts | 319° |
| 2026-05-05 13:32 | 39.75400 | 20.94019 | 36109 ft | 389 kts | 319° |
| 2026-05-05 13:33 | 39.79560 | 20.89531 | 36107 ft | 389 kts | 319° |
| 2026-05-05 13:33 | 39.83720 | 20.85039 | 36106 ft | 388 kts | 319° |
| 2026-05-05 13:34 | 39.87878 | 20.80545 | 36102 ft | 388 kts | 318° |
| 2026-05-05 13:34 | 39.92021 | 20.76044 | 36105 ft | 388 kts | 318° |
| 2026-05-05 13:35 | 39.96131 | 20.71570 | 36104 ft | 388 kts | 318° |
| 2026-05-05 13:35 | 40.00269 | 20.67069 | 36094 ft | 387 kts | 318° |
| 2026-05-05 13:36 | 40.04400 | 20.62568 | 36093 ft | 387 kts | 318° |
| 2026-05-05 13:36 | 40.08780 | 20.58487 | 36093 ft | 391 kts | 330° |
| 2026-05-05 13:37 | 40.13683 | 20.55398 | 36097 ft | 391 kts | 330° |
| 2026-05-05 13:37 | 40.18579 | 20.52312 | 36091 ft | 391 kts | 330° |
| 2026-05-05 13:38 | 40.23485 | 20.49221 | 36088 ft | 391 kts | 330° |
| 2026-05-05 13:38 | 40.28390 | 20.46125 | 36073 ft | 391 kts | 330° |
| 2026-05-05 13:39 | 40.33285 | 20.43032 | 36074 ft | 391 kts | 330° |
| 2026-05-05 13:39 | 40.38181 | 20.39917 | 36092 ft | 392 kts | 330° |
| 2026-05-05 13:40 | 40.43080 | 20.36787 | 36085 ft | 392 kts | 330° |
| 2026-05-05 13:40 | 40.47981 | 20.33657 | 36089 ft | 392 kts | 330° |
| 2026-05-05 13:41 | 40.52887 | 20.30535 | 36082 ft | 391 kts | 329° |
| 2026-05-05 13:41 | 40.57795 | 20.27417 | 36087 ft | 392 kts | 330° |
| 2026-05-05 13:42 | 40.62700 | 20.24280 | 36089 ft | 393 kts | 329° |
| 2026-05-05 13:42 | 40.67614 | 20.21128 | 36084 ft | 393 kts | 330° |
| 2026-05-05 13:43 | 40.72533 | 20.17975 | 36084 ft | 393 kts | 330° |
| 2026-05-05 13:43 | 40.77454 | 20.14816 | 36088 ft | 394 kts | 329° |
| 2026-05-05 13:44 | 40.82370 | 20.11639 | 36092 ft | 394 kts | 329° |
| 2026-05-05 13:44 | 40.87291 | 20.08447 | 36087 ft | 395 kts | 329° |
| 2026-05-05 13:45 | 40.92191 | 20.05282 | 36082 ft | 395 kts | 329° |
| 2026-05-05 13:45 | 40.97122 | 20.02083 | 36086 ft | 395 kts | 329° |
| 2026-05-05 13:46 | 41.02055 | 19.98863 | 36090 ft | 395 kts | 329° |
| 2026-05-05 13:46 | 41.06990 | 19.95641 | 36094 ft | 395 kts | 329° |
| 2026-05-05 13:47 | 41.11128 | 19.92952 | 36098 ft | 396 kts | 329° |
| 2026-05-05 13:47 | 41.16039 | 19.89761 | 36100 ft | 396 kts | 329° |
| 2026-05-05 13:48 | 41.20982 | 19.86537 | 36099 ft | 396 kts | 329° |
| 2026-05-05 13:48 | 41.25922 | 19.83309 | 36100 ft | 396 kts | 329° |
| 2026-05-05 13:49 | 41.30863 | 19.80072 | 36104 ft | 396 kts | 329° |
| 2026-05-05 13:49 | 41.35810 | 19.76819 | 36094 ft | 397 kts | 328° |
| 2026-05-05 13:50 | 41.40769 | 19.73551 | 36091 ft | 398 kts | 329° |
| 2026-05-05 13:50 | 41.45739 | 19.70290 | 36094 ft | 398 kts | 329° |
| 2026-05-05 13:51 | 41.50712 | 19.67011 | 36095 ft | 399 kts | 328° |
| 2026-05-05 13:51 | 41.55685 | 19.63722 | 36103 ft | 399 kts | 328° |
| 2026-05-05 13:52 | 41.60665 | 19.60422 | 36087 ft | 400 kts | 328° |
| 2026-05-05 13:52 | 41.65653 | 19.57113 | 36101 ft | 400 kts | 328° |
| 2026-05-05 13:53 | 41.70645 | 19.53799 | 36101 ft | 401 kts | 328° |
| 2026-05-05 13:53 | 41.75638 | 19.50473 | 36104 ft | 401 kts | 328° |
| 2026-05-05 13:54 | 41.80638 | 19.47134 | 36094 ft | 402 kts | 328° |
| 2026-05-05 13:54 | 41.85649 | 19.43782 | 36091 ft | 403 kts | 328° |
| 2026-05-05 13:55 | 41.90674 | 19.40426 | 36091 ft | 404 kts | 328° |
| 2026-05-05 13:55 | 41.95704 | 19.37054 | 36092 ft | 404 kts | 328° |
| 2026-05-05 13:56 | 42.00748 | 19.33669 | 36084 ft | 406 kts | 328° |
| 2026-05-05 13:56 | 42.05805 | 19.30266 | 36083 ft | 407 kts | 328° |
| 2026-05-05 13:57 | 42.10843 | 19.26872 | 36074 ft | 408 kts | 328° |
| 2026-05-05 13:57 | 42.15922 | 19.23443 | 36086 ft | 409 kts | 328° |
| 2026-05-05 13:58 | 42.21009 | 19.20006 | 36098 ft | 410 kts | 329° |
| 2026-05-05 13:58 | 42.26115 | 19.16554 | 36087 ft | 411 kts | 329° |
| 2026-05-05 13:59 | 42.33791 | 19.11342 | 36076 ft | 412 kts | 328° |
| 2026-05-05 14:00 | 42.41486 | 19.06095 | 36091 ft | 413 kts | 329° |
| 2026-05-05 14:00 | 42.46630 | 19.02597 | 36088 ft | 414 kts | 329° |
| 2026-05-05 14:01 | 42.51787 | 18.99072 | 36083 ft | 416 kts | 329° |
| 2026-05-05 14:01 | 42.56951 | 18.95525 | 36081 ft | 416 kts | 329° |
| 2026-05-05 14:02 | 42.62127 | 18.91976 | 36081 ft | 417 kts | 329° |
| 2026-05-05 14:02 | 42.67307 | 18.88404 | 36081 ft | 418 kts | 330° |
| 2026-05-05 14:03 | 42.72505 | 18.84835 | 36077 ft | 419 kts | 330° |
| 2026-05-05 14:03 | 42.77707 | 18.81253 | 36071 ft | 419 kts | 330° |
| 2026-05-05 14:04 | 42.82908 | 18.77641 | 36066 ft | 420 kts | 329° |
| 2026-05-05 14:04 | 42.88084 | 18.74057 | 36074 ft | 421 kts | 330° |
| 2026-05-05 14:05 | 42.93311 | 18.70443 | 36067 ft | 421 kts | 329° |
| 2026-05-05 14:05 | 42.98567 | 18.66782 | 36067 ft | 421 kts | 329° |
| 2026-05-05 14:06 | 43.03792 | 18.63135 | 36070 ft | 422 kts | 329° |
| 2026-05-05 14:06 | 43.08991 | 18.59513 | 36073 ft | 422 kts | 329° |
| 2026-05-05 14:07 | 43.14223 | 18.55840 | 36069 ft | 423 kts | 329° |
| 2026-05-05 14:07 | 43.19502 | 18.52243 | 36065 ft | 424 kts | 330° |
| 2026-05-05 14:08 | 43.24828 | 18.48746 | 36066 ft | 425 kts | 331° |
| 2026-05-05 14:08 | 43.30158 | 18.45246 | 36060 ft | 425 kts | 330° |
| 2026-05-05 14:09 | 43.35477 | 18.41697 | 36055 ft | 425 kts | 330° |
| 2026-05-05 14:09 | 43.40794 | 18.38124 | 36055 ft | 426 kts | 330° |
| 2026-05-05 14:10 | 43.46125 | 18.34553 | 36055 ft | 426 kts | 330° |
| 2026-05-05 14:10 | 43.51464 | 18.30974 | 36064 ft | 427 kts | 330° |
| 2026-05-05 14:11 | 43.56798 | 18.27381 | 36055 ft | 427 kts | 330° |
| 2026-05-05 14:11 | 43.62137 | 18.23774 | 36029 ft | 427 kts | 330° |
| 2026-05-05 14:12 | 43.67483 | 18.20159 | 36027 ft | 428 kts | 330° |
| 2026-05-05 14:12 | 43.72833 | 18.16544 | 36026 ft | 428 kts | 330° |
| 2026-05-05 14:13 | 43.78185 | 18.12911 | 36021 ft | 429 kts | 330° |
| 2026-05-05 14:13 | 43.83538 | 18.09268 | 36021 ft | 429 kts | 330° |
| 2026-05-05 14:14 | 43.88895 | 18.05620 | 36021 ft | 429 kts | 330° |
| 2026-05-05 14:14 | 43.94254 | 18.01961 | 36022 ft | 429 kts | 330° |
| 2026-05-05 14:15 | 43.99610 | 17.98295 | 36022 ft | 429 kts | 330° |
| 2026-05-05 14:15 | 44.04972 | 17.94623 | 36004 ft | 430 kts | 330° |
| 2026-05-05 14:16 | 44.10345 | 17.90933 | 36011 ft | 431 kts | 330° |
| 2026-05-05 14:16 | 44.15685 | 17.87253 | 36000 ft | 431 kts | 330° |
| 2026-05-05 14:17 | 44.21063 | 17.83546 | 35994 ft | 431 kts | 330° |
| 2026-05-05 14:17 | 44.26442 | 17.79837 | 36007 ft | 431 kts | 330° |
| 2026-05-05 14:18 | 44.31826 | 17.76110 | 35982 ft | 432 kts | 330° |
| 2026-05-05 14:18 | 44.37221 | 17.72370 | 35992 ft | 433 kts | 330° |
| 2026-05-05 14:19 | 44.42625 | 17.68609 | 35978 ft | 434 kts | 330° |
| 2026-05-05 14:19 | 44.48033 | 17.64847 | 35979 ft | 434 kts | 330° |
| 2026-05-05 14:20 | 44.53442 | 17.61074 | 35985 ft | 434 kts | 330° |
| 2026-05-05 14:20 | 44.58852 | 17.57286 | 35980 ft | 435 kts | 330° |
| 2026-05-05 14:21 | 44.64276 | 17.53483 | 35971 ft | 437 kts | 330° |
| 2026-05-05 14:21 | 44.69716 | 17.49661 | 35963 ft | 437 kts | 330° |
| 2026-05-05 14:22 | 44.75162 | 17.45825 | 35956 ft | 438 kts | 330° |
| 2026-05-05 14:22 | 44.80611 | 17.41978 | 35958 ft | 438 kts | 330° |
| 2026-05-05 14:23 | 44.86028 | 17.38148 | 35967 ft | 439 kts | 330° |
| 2026-05-05 14:23 | 44.91485 | 17.34278 | 35961 ft | 439 kts | 330° |
| 2026-05-05 14:24 | 44.96954 | 17.30402 | 35959 ft | 440 kts | 330° |
| 2026-05-05 14:24 | 45.02424 | 17.26519 | 35949 ft | 440 kts | 330° |
| 2026-05-05 14:25 | 45.07895 | 17.22613 | 35964 ft | 440 kts | 330° |
| 2026-05-05 14:25 | 45.13361 | 17.18703 | 35966 ft | 440 kts | 330° |
| 2026-05-05 14:26 | 45.18823 | 17.14800 | 35966 ft | 440 kts | 330° |
| 2026-05-05 14:26 | 45.24288 | 17.10875 | 35958 ft | 440 kts | 330° |
| 2026-05-05 14:27 | 45.29755 | 17.06937 | 35962 ft | 441 kts | 330° |
| 2026-05-05 14:27 | 45.35228 | 17.02994 | 35960 ft | 441 kts | 330° |
| 2026-05-05 14:28 | 45.40706 | 16.99040 | 35958 ft | 441 kts | 330° |
| 2026-05-05 14:28 | 45.46181 | 16.95081 | 35958 ft | 442 kts | 330° |
| 2026-05-05 14:29 | 45.51660 | 16.91102 | 35955 ft | 442 kts | 330° |
| 2026-05-05 14:29 | 45.57144 | 16.87107 | 35954 ft | 443 kts | 330° |
| 2026-05-05 14:30 | 45.62632 | 16.83101 | 35956 ft | 443 kts | 330° |
| 2026-05-05 14:30 | 45.68124 | 16.79092 | 35960 ft | 443 kts | 330° |
| 2026-05-05 14:31 | 45.73618 | 16.75075 | 35965 ft | 443 kts | 330° |
| 2026-05-05 14:31 | 45.79079 | 16.71080 | 35973 ft | 444 kts | 330° |
| 2026-05-05 14:32 | 45.84571 | 16.67044 | 35964 ft | 444 kts | 330° |
| 2026-05-05 14:32 | 45.90060 | 16.62992 | 35968 ft | 444 kts | 330° |
| 2026-05-05 14:33 | 45.95553 | 16.58936 | 35965 ft | 444 kts | 330° |
| 2026-05-05 14:33 | 46.01042 | 16.54873 | 35973 ft | 444 kts | 330° |
| 2026-05-05 14:34 | 46.06522 | 16.50793 | 35967 ft | 443 kts | 330° |
| 2026-05-05 14:34 | 46.12009 | 16.46730 | 35966 ft | 443 kts | 329° |
| 2026-05-05 14:35 | 46.17493 | 16.42656 | 35963 ft | 443 kts | 329° |
| 2026-05-05 14:35 | 46.22967 | 16.38554 | 35960 ft | 443 kts | 329° |
| 2026-05-05 14:36 | 46.27514 | 16.35141 | 35958 ft | 443 kts | 329° |
| 2026-05-05 14:36 | 46.32984 | 16.31036 | 35945 ft | 443 kts | 329° |
| 2026-05-05 14:37 | 46.38632 | 16.27416 | 35939 ft | 448 kts | 341° |
| 2026-05-05 14:37 | 46.44789 | 16.25763 | 35940 ft | 451 kts | 348° |
| 2026-05-05 14:38 | 46.50989 | 16.24301 | 35917 ft | 452 kts | 347° |
| 2026-05-05 14:38 | 46.54100 | 16.23556 | 35664 ft | 453 kts | 347° |
| 2026-05-05 14:38 | 46.57215 | 16.22810 | 35409 ft | 454 kts | 348° |
| 2026-05-05 14:39 | 46.60335 | 16.22064 | 35160 ft | 455 kts | 347° |
| 2026-05-05 14:39 | 46.63466 | 16.21314 | 34913 ft | 456 kts | 348° |
| 2026-05-05 14:39 | 46.66603 | 16.20567 | 34673 ft | 458 kts | 347° |
| 2026-05-05 14:39 | 46.69756 | 16.19819 | 34243 ft | 460 kts | 348° |
| 2026-05-05 14:40 | 46.72934 | 16.19063 | 33144 ft | 466 kts | 348° |
| 2026-05-05 14:40 | 46.76142 | 16.18298 | 32111 ft | 469 kts | 348° |
| 2026-05-05 14:40 | 46.79371 | 16.17529 | 31073 ft | 472 kts | 348° |
| 2026-05-05 14:40 | 46.82625 | 16.16753 | 29912 ft | 476 kts | 348° |
| 2026-05-05 14:41 | 46.85913 | 16.15968 | 28660 ft | 480 kts | 348° |
| 2026-05-05 14:41 | 46.89187 | 16.15183 | 27979 ft | 472 kts | 348° |
| 2026-05-05 14:41 | 46.92403 | 16.14408 | 27207 ft | 466 kts | 348° |
| 2026-05-05 14:41 | 46.95589 | 16.13639 | 26466 ft | 461 kts | 347° |
| 2026-05-05 14:42 | 46.98741 | 16.12878 | 25746 ft | 457 kts | 348° |
| 2026-05-05 14:42 | 47.01826 | 16.12136 | 25041 ft | 453 kts | 348° |
| 2026-05-05 14:42 | 47.04927 | 16.11389 | 24330 ft | 450 kts | 347° |
| 2026-05-05 14:42 | 47.08008 | 16.10641 | 23632 ft | 447 kts | 349° |
| 2026-05-05 14:43 | 47.11068 | 16.09897 | 22857 ft | 445 kts | 347° |
| 2026-05-05 14:43 | 47.14101 | 16.09163 | 22230 ft | 439 kts | 348° |
| 2026-05-05 14:43 | 47.17096 | 16.08440 | 21602 ft | 434 kts | 347° |
| 2026-05-05 14:43 | 47.20061 | 16.07721 | 21011 ft | 429 kts | 347° |
| 2026-05-05 14:44 | 47.22994 | 16.07006 | 20453 ft | 425 kts | 348° |
| 2026-05-05 14:44 | 47.25892 | 16.06301 | 19890 ft | 420 kts | 349° |
| 2026-05-05 14:44 | 47.28764 | 16.05600 | 19354 ft | 417 kts | 347° |
| 2026-05-05 14:44 | 47.31612 | 16.04903 | 18838 ft | 413 kts | 348° |
| 2026-05-05 14:45 | 47.34446 | 16.04297 | 18319 ft | 411 kts | 353° |
| 2026-05-05 14:45 | 47.37304 | 16.04358 | 17759 ft | 411 kts | 4° |
| 2026-05-05 14:45 | 47.40107 | 16.05207 | 17559 ft | 412 kts | 15° |
| 2026-05-05 14:45 | 47.42825 | 16.06542 | 17316 ft | 410 kts | 17° |
| 2026-05-05 14:46 | 47.45533 | 16.07884 | 17059 ft | 412 kts | 16° |
| 2026-05-05 14:46 | 47.48245 | 16.09224 | 16809 ft | 409 kts | 17° |
| 2026-05-05 14:46 | 47.50940 | 16.10557 | 16565 ft | 408 kts | 15° |
| 2026-05-05 14:46 | 47.53640 | 16.11888 | 16307 ft | 409 kts | 15° |
| 2026-05-05 14:47 | 47.56324 | 16.13216 | 16066 ft | 404 kts | 18° |
| 2026-05-05 14:47 | 47.58992 | 16.14545 | 15823 ft | 405 kts | 17° |
| 2026-05-05 14:47 | 47.61661 | 16.15875 | 15557 ft | 403 kts | 17° |
| 2026-05-05 14:47 | 47.64309 | 16.17194 | 15326 ft | 401 kts | 18° |
| 2026-05-05 14:48 | 47.66957 | 16.18515 | 15087 ft | 402 kts | 18° |
| 2026-05-05 14:48 | 47.69557 | 16.19814 | 14835 ft | 398 kts | 17° |
| 2026-05-05 14:48 | 47.72177 | 16.21123 | 14595 ft | 397 kts | 16° |
| 2026-05-05 14:48 | 47.74801 | 16.22437 | 14355 ft | 396 kts | 18° |
| 2026-05-05 14:49 | 47.77321 | 16.24045 | 14115 ft | 394 kts | 27° |
| 2026-05-05 14:49 | 47.79666 | 16.26177 | 13878 ft | 395 kts | 31° |
| 2026-05-05 14:49 | 47.81981 | 16.28357 | 13638 ft | 392 kts | 31° |
| 2026-05-05 14:49 | 47.84273 | 16.30508 | 13373 ft | 391 kts | 31° |
| 2026-05-05 14:50 | 47.86544 | 16.32637 | 13151 ft | 391 kts | 32° |
| 2026-05-05 14:50 | 47.88836 | 16.34784 | 12911 ft | 389 kts | 31° |
| 2026-05-05 14:50 | 47.91127 | 16.36934 | 12676 ft | 390 kts | 32° |
| 2026-05-05 14:50 | 47.93413 | 16.39077 | 12442 ft | 386 kts | 32° |
| 2026-05-05 14:51 | 47.95688 | 16.41214 | 12211 ft | 387 kts | 32° |
| 2026-05-05 14:51 | 47.97958 | 16.43352 | 11976 ft | 385 kts | 32° |
| 2026-05-05 14:51 | 48.00212 | 16.45483 | 11725 ft | 383 kts | 32° |
| 2026-05-05 14:51 | 48.02472 | 16.47621 | 11494 ft | 385 kts | 32° |
| 2026-05-05 14:52 | 48.04722 | 16.49751 | 11264 ft | 381 kts | 31° |
| 2026-05-05 14:52 | 48.06964 | 16.51875 | 11029 ft | 384 kts | 32° |
| 2026-05-05 14:52 | 48.09217 | 16.54013 | 10799 ft | 381 kts | 32° |
| 2026-05-05 14:52 | 48.11428 | 16.56107 | 10588 ft | 371 kts | 32° |
| 2026-05-05 14:53 | 48.13561 | 16.58131 | 10461 ft | 355 kts | 32° |
| 2026-05-05 14:53 | 48.15606 | 16.60081 | 10340 ft | 341 kts | 32° |
| 2026-05-05 14:53 | 48.17572 | 16.61956 | 10212 ft | 329 kts | 32° |
| 2026-05-05 14:53 | 48.19485 | 16.63749 | 10033 ft | 320 kts | 28° |
| 2026-05-05 14:54 | 48.21522 | 16.64970 | 9842 ft | 312 kts | 12° |
| 2026-05-05 14:54 | 48.23655 | 16.65366 | 9716 ft | 309 kts | 356° |
| 2026-05-05 14:54 | 48.25728 | 16.64974 | 9504 ft | 306 kts | 343° |
| 2026-05-05 14:54 | 48.27763 | 16.64114 | 9366 ft | 304 kts | 341° |
| 2026-05-05 14:55 | 48.29791 | 16.63253 | 9285 ft | 302 kts | 341° |
| 2026-05-05 14:55 | 48.31823 | 16.62395 | 9120 ft | 305 kts | 342° |
| 2026-05-05 14:55 | 48.33868 | 16.61533 | 8939 ft | 306 kts | 342° |
| 2026-05-05 14:55 | 48.35919 | 16.60669 | 8746 ft | 307 kts | 341° |
| 2026-05-05 14:56 | 48.37965 | 16.59810 | 8555 ft | 304 kts | 341° |
| 2026-05-05 14:56 | 48.39977 | 16.58962 | 8375 ft | 301 kts | 342° |
| 2026-05-05 14:56 | 48.41974 | 16.58118 | 8188 ft | 295 kts | 340° |
| 2026-05-05 14:56 | 48.43913 | 16.57302 | 8038 ft | 284 kts | 341° |
| 2026-05-05 14:57 | 48.45791 | 16.56510 | 7944 ft | 280 kts | 340° |
| 2026-05-05 14:57 | 48.47663 | 16.55715 | 7786 ft | 279 kts | 342° |
| 2026-05-05 14:57 | 48.49525 | 16.54922 | 7591 ft | 277 kts | 341° |
| 2026-05-05 14:57 | 48.51328 | 16.53992 | 7384 ft | 271 kts | 327° |
| 2026-05-05 14:58 | 48.52692 | 16.52154 | 7212 ft | 259 kts | 297° |
| 2026-05-05 14:58 | 48.53344 | 16.49707 | 7017 ft | 249 kts | 274° |
| 2026-05-05 14:58 | 48.53245 | 16.47154 | 6839 ft | 239 kts | 249° |
| 2026-05-05 14:58 | 48.52509 | 16.45028 | 6716 ft | 222 kts | 226° |
| 2026-05-05 14:59 | 48.51363 | 16.43646 | 6592 ft | 209 kts | 205° |
| 2026-05-05 14:59 | 48.49970 | 16.43063 | 6469 ft | 206 kts | 184° |
| 2026-05-05 14:59 | 48.48533 | 16.43243 | 6350 ft | 211 kts | 174° |
| 2026-05-05 14:59 | 48.47109 | 16.43522 | 6231 ft | 208 kts | 181° |
| 2026-05-05 15:00 | 48.45662 | 16.43631 | 6075 ft | 210 kts | 174° |
| 2026-05-05 15:00 | 48.44700 | 16.43920 | 6031 ft | 209 kts | 169° |
| 2026-05-05 15:00 | 48.42834 | 16.44671 | 5969 ft | 210 kts | 168° |
| 2026-05-05 15:00 | 48.41431 | 16.45270 | 5915 ft | 208 kts | 167° |
| 2026-05-05 15:01 | 48.40043 | 16.45866 | 5838 ft | 207 kts | 168° |
| 2026-05-05 15:01 | 48.38656 | 16.46459 | 5760 ft | 208 kts | 167° |
| 2026-05-05 15:01 | 48.37256 | 16.47058 | 5573 ft | 208 kts | 167° |
| 2026-05-05 15:01 | 48.35875 | 16.47649 | 5321 ft | 205 kts | 167° |
| 2026-05-05 15:02 | 48.34512 | 16.48232 | 5071 ft | 202 kts | 167° |
| 2026-05-05 15:02 | 48.33166 | 16.48807 | 4804 ft | 200 kts | 168° |
| 2026-05-05 15:02 | 48.31840 | 16.49373 | 4552 ft | 197 kts | 168° |
| 2026-05-05 15:02 | 48.30541 | 16.49927 | 4291 ft | 195 kts | 167° |
| 2026-05-05 15:03 | 48.29241 | 16.50481 | 4038 ft | 193 kts | 167° |
| 2026-05-05 15:03 | 48.27956 | 16.51029 | 3784 ft | 190 kts | 168° |
| 2026-05-05 15:03 | 48.26715 | 16.51559 | 3507 ft | 181 kts | 168° |
| 2026-05-05 15:03 | 48.25543 | 16.52060 | 3287 ft | 168 kts | 168° |
| 2026-05-05 15:04 | 48.24473 | 16.52516 | 3074 ft | 153 kts | 169° |
| 2026-05-05 15:04 | 48.23489 | 16.52935 | 2877 ft | 141 kts | 169° |
| 2026-05-05 15:04 | 48.22590 | 16.53317 | 2714 ft | 129 kts | 169° |
| 2026-05-05 15:04 | 48.21741 | 16.53677 | 2545 ft | 125 kts | 169° |
| 2026-05-05 15:05 | 48.20090 | 16.54376 | 2224 ft | 122 kts | 170° |
| 2026-05-05 15:05 | 48.19274 | 16.54722 | 2067 ft | 122 kts | 171° |
| 2026-05-05 15:05 | 48.18456 | 16.55069 | 1905 ft | 122 kts | 168° |
| 2026-05-05 15:06 | 48.17643 | 16.55414 | 1743 ft | 121 kts | 168° |
| 2026-05-05 15:06 | 48.16831 | 16.55758 | 1589 ft | 121 kts | 168° |
| 2026-05-05 15:06 | 48.16022 | 16.56102 | 1433 ft | 121 kts | 168° |
| 2026-05-05 15:06 | 48.15208 | 16.56446 | 1286 ft | 124 kts | 167° |
| 2026-05-05 15:07 | 48.14371 | 16.56801 | 1126 ft | 126 kts | 166° |
| 2026-05-05 15:07 | 48.13556 | 16.57146 | 957 ft | 122 kts | 167° |
| 2026-05-05 15:07 | 48.12742 | 16.57507 | 819 ft | 122 kts | 168° |
| 2026-05-05 15:07 | 48.11937 | 16.57837 | 657 ft | 119 kts | 168° |
| 2026-05-05 15:08 | 48.11184 | 16.58149 | 620 ft | 96 kts | 166° |
| 2026-05-05 15:08 | 48.10709 | 16.58347 | 613 ft | 53 kts | 166° |
| 2026-05-05 15:08 | 48.10430 | 16.58466 | 616 ft | 30 kts | 171° |
| 2026-05-05 15:08 | 48.10249 | 16.58442 | 608 ft | 23 kts | 194° |
| 2026-05-05 15:09 | 48.10137 | 16.58372 | 611 ft | 12 kts | 245° |
| 2026-05-05 15:09 | 48.10193 | 16.58293 | 611 ft | 15 kts | 345° |
| 2026-05-05 15:09 | 48.10304 | 16.58246 | 613 ft | 16 kts | 344° |
| 2026-05-05 15:09 | 48.10417 | 16.58199 | 608 ft | 20 kts | 345° |
| 2026-05-05 15:10 | 48.10555 | 16.58140 | 617 ft | 22 kts | 344° |
| 2026-05-05 15:10 | 48.10709 | 16.58075 | 613 ft | 22 kts | 344° |
| 2026-05-05 15:10 | 48.10855 | 16.58012 | 617 ft | 21 kts | 344° |
| 2026-05-05 15:10 | 48.10972 | 16.57909 | 614 ft | 19 kts | 315° |
| 2026-05-05 15:11 | 48.11051 | 16.57758 | 614 ft | 18 kts | 296° |
| 2026-05-05 15:11 | 48.11104 | 16.57600 | 613 ft | 16 kts | 296° |
| 2026-05-05 15:11 | 48.11151 | 16.57452 | 612 ft | 17 kts | 295° |
| 2026-05-05 15:11 | 48.11209 | 16.57273 | 611 ft | 21 kts | 296° |
| 2026-05-05 15:12 | 48.11273 | 16.57079 | 609 ft | 21 kts | 296° |
| 2026-05-05 15:12 | 48.11335 | 16.56885 | 616 ft | 21 kts | 296° |
| 2026-05-05 15:12 | 48.11398 | 16.56690 | 609 ft | 21 kts | 296° |
| 2026-05-05 15:12 | 48.11461 | 16.56494 | 615 ft | 21 kts | 295° |
| 2026-05-05 15:13 | 48.11509 | 16.56345 | 618 ft | 15 kts | 296° |
| 2026-05-05 15:13 | 48.11550 | 16.56218 | 619 ft | 11 kts | 295° |
| 2026-05-05 15:13 | 48.11583 | 16.56176 | 612 ft | 5 kts | 356° |
| 2026-05-05 15:13 | 48.11615 | 16.56194 | 612 ft | 6 kts | 25° |
| 2026-05-05 15:14 | 48.11666 | 16.56251 | 615 ft | 11 kts | 29° |
| 2026-05-05 15:14 | 48.11740 | 16.56304 | 616 ft | 13 kts | 30° |
| 2026-05-05 15:14 | 48.11743 | 16.56415 | 617 ft | 12 kts | 116° |
| 2026-05-05 15:14 | 48.11706 | 16.56531 | 613 ft | 7 kts | 115° |
| 2026-05-05 15:15 | 48.11681 | 16.56606 | 621 ft | 9 kts | 115° |
| 2026-05-05 15:15 | 48.11691 | 16.56643 | 615 ft | 4 kts | 34° |
| 2026-05-05 15:15 | 48.11731 | 16.56672 | 611 ft | 5 kts | 25° |
| 2026-05-05 15:15 | 48.11745 | 16.56682 | 609 ft | 0 kts | 25° |